createdAt,value
2017-09-19T00:00:28.271Z,99032.95
2017-09-19T00:08:01.982Z,99029.39
2017-09-19T00:10:30.724Z,99032.16
2017-09-19T00:12:58.286Z,99028.06
2017-09-19T00:15:28.290Z,99027.83
2017-09-19T00:17:55.856Z,99026.47
2017-09-19T00:20:23.354Z,99033.73
2017-09-19T00:25:24.000Z,99028.59
2017-09-19T00:27:51.493Z,99028.34
2017-09-19T00:30:19.004Z,99031.16
2017-09-19T00:32:46.523Z,99031.55
2017-09-19T00:35:14.012Z,99030.48
2017-09-19T00:37:41.543Z,99029.30
2017-09-19T00:40:09.115Z,99028.28
2017-09-19T00:42:36.652Z,99032.51
2017-09-19T00:47:58.907Z,99027.30
2017-09-19T00:50:27.172Z,99029.00
2017-09-19T00:52:54.727Z,99029.63
2017-09-19T00:55:22.229Z,99026.45
2017-09-19T00:57:49.806Z,99023.16
2017-09-19T01:00:18.171Z,99019.67
2017-09-19T01:02:45.751Z,99017.45
2017-09-19T01:10:16.776Z,99010.95
2017-09-19T01:12:44.270Z,99012.39
2017-09-19T01:15:12.708Z,99008.69
2017-09-19T01:17:40.296Z,99007.78
2017-09-19T01:20:07.854Z,99002.45
2017-09-19T01:22:35.499Z,98999.30
2017-09-19T01:25:03.074Z,99002.50
2017-09-19T01:27:30.579Z,98999.06
2017-09-19T01:29:58.186Z,98994.81
2017-09-19T01:32:27.722Z,98984.06
2017-09-19T01:34:56.353Z,98997.28
2017-09-19T01:37:24.951Z,98997.02
2017-09-19T01:39:52.581Z,98997.17
2017-09-19T01:42:20.139Z,99000.52
2017-09-19T01:44:47.986Z,99003.94
2017-09-19T01:47:15.953Z,98999.82
2017-09-19T01:49:43.487Z,98998.75
2017-09-19T01:52:11.015Z,99003.28
2017-09-19T01:54:38.554Z,98998.91
2017-09-19T01:57:06.143Z,98998.61
2017-09-19T01:59:33.709Z,98995.80
2017-09-19T02:07:28.617Z,99004.32
2017-09-19T02:09:58.056Z,99007.91
2017-09-19T02:14:58.349Z,99004.55
2017-09-19T02:17:25.830Z,99002.07
2017-09-19T02:19:53.384Z,99004.03
2017-09-19T02:22:20.904Z,99002.99
2017-09-19T02:28:19.664Z,98999.59
2017-09-19T02:30:47.368Z,99001.20
2017-09-19T02:33:15.788Z,98998.91
2017-09-19T02:35:43.394Z,98999.99
2017-09-19T02:46:56.057Z,98991.44
2017-09-19T02:49:23.569Z,98983.09
2017-09-19T02:51:51.069Z,98983.91
2017-09-19T02:54:18.572Z,98973.16
2017-09-19T02:56:46.067Z,98985.83
2017-09-19T02:59:13.942Z,98977.07
2017-09-19T03:01:41.432Z,98982.77
2017-09-19T03:04:08.961Z,98982.66
2017-09-19T03:06:36.449Z,98978.58
2017-09-19T03:09:03.910Z,98978.45
2017-09-19T03:11:31.421Z,98975.18
2017-09-19T03:13:58.921Z,98895.75
2017-09-19T03:16:26.428Z,98967.47
2017-09-19T03:18:53.930Z,98974.36
2017-09-19T03:21:21.456Z,98968.80
2017-09-19T03:23:49.902Z,98964.70
2017-09-19T03:26:17.531Z,98962.28
2017-09-19T03:28:45.067Z,98960.78
2017-09-19T03:31:12.652Z,98957.37
2017-09-19T03:33:40.137Z,98962.69
2017-09-19T03:36:07.663Z,98900.74
2017-09-19T03:38:35.188Z,98966.02
2017-09-19T03:41:02.669Z,98967.41
2017-09-19T03:43:30.208Z,98968.50
2017-09-19T03:45:57.721Z,98974.61
2017-09-19T03:48:25.214Z,98968.95
2017-09-19T03:50:52.717Z,98975.69
2017-09-19T03:55:52.786Z,98978.17
2017-09-19T04:00:58.972Z,98975.40
2017-09-19T04:06:07.889Z,98976.72
2017-09-19T04:08:35.405Z,98977.95
2017-09-19T04:11:02.917Z,98976.50
2017-09-19T04:13:30.427Z,98975.83
2017-09-19T04:15:57.939Z,98985.37
2017-09-19T04:18:26.264Z,98989.45
2017-09-19T04:20:53.827Z,98987.84
2017-09-19T04:23:21.367Z,98987.34
2017-09-19T04:25:49.056Z,98991.30
2017-09-19T04:28:16.583Z,98994.70
2017-09-19T04:30:44.144Z,98994.34
2017-09-19T04:33:11.639Z,98999.09
2017-09-19T04:35:39.168Z,98996.09
2017-09-19T04:38:06.669Z,98998.97
2017-09-19T04:43:13.486Z,99010.50
2017-09-19T04:45:40.987Z,99004.39
2017-09-19T04:48:08.473Z,99009.85
2017-09-19T04:50:36.006Z,99008.25
2017-09-19T04:53:03.484Z,99009.73
2017-09-19T04:55:30.970Z,99009.61
2017-09-19T04:57:58.477Z,99012.27
2017-09-19T05:00:26.864Z,99017.04
2017-09-19T05:02:55.709Z,99017.05
2017-09-19T05:05:23.209Z,99018.37
2017-09-19T05:07:50.682Z,99027.66
2017-09-19T05:10:18.240Z,99015.34
2017-09-19T05:12:45.719Z,99025.11
2017-09-19T05:15:13.229Z,99026.55
2017-09-19T05:17:40.725Z,99026.39
2017-09-19T05:20:08.195Z,99026.90
2017-09-19T05:22:35.796Z,99027.46
2017-09-19T05:25:03.261Z,99032.47
2017-09-19T05:27:30.769Z,99030.97
2017-09-19T05:29:58.267Z,99032.55
2017-09-19T05:32:25.772Z,99013.02
2017-09-19T05:34:53.236Z,99034.16
2017-09-19T05:37:20.873Z,99030.59
2017-09-19T05:39:48.361Z,99030.04
2017-09-19T05:42:15.842Z,99035.71
2017-09-19T05:44:43.346Z,99032.41
2017-09-19T05:47:10.922Z,99030.27
2017-09-19T05:49:38.425Z,99025.09
2017-09-19T05:52:05.925Z,99020.98
2017-09-19T05:54:33.424Z,99025.09
2017-09-19T05:57:01.498Z,99027.61
2017-09-19T05:59:28.983Z,99030.39
2017-09-19T06:01:56.440Z,99031.22
2017-09-19T06:04:23.922Z,99029.49
2017-09-19T06:06:51.376Z,99034.02
2017-09-19T06:09:30.657Z,99033.06
2017-09-19T06:11:58.157Z,99035.59
2017-09-19T06:14:25.654Z,99041.42
2017-09-19T06:16:53.158Z,99033.97
2017-09-19T06:19:20.613Z,99042.72
2017-09-19T06:21:48.248Z,99041.52
2017-09-19T06:24:15.696Z,99049.86
2017-09-19T06:26:43.175Z,99052.91
2017-09-19T06:29:10.680Z,99054.06
2017-09-19T06:31:38.129Z,99056.38
2017-09-19T06:34:05.619Z,99058.80
2017-09-19T06:36:33.083Z,99058.80
2017-09-19T06:39:00.620Z,99061.78
2017-09-19T06:41:28.139Z,99062.59
2017-09-19T06:43:57.756Z,99060.58
2017-09-19T06:46:25.285Z,99069.34
2017-09-19T06:48:52.744Z,99072.91
2017-09-19T06:51:20.240Z,99067.73
2017-09-19T06:53:47.716Z,99067.95
2017-09-19T06:56:15.209Z,99056.58
2017-09-19T06:58:42.670Z,99071.52
2017-09-19T07:01:21.923Z,99076.69
2017-09-19T07:03:49.437Z,99070.87
2017-09-19T07:06:17.569Z,99078.78
2017-09-19T07:08:45.684Z,99080.22
2017-09-19T07:11:13.145Z,99076.71
2017-09-19T07:13:40.640Z,99076.48
2017-09-19T07:16:08.170Z,99078.73
2017-09-19T07:18:35.653Z,99076.48
2017-09-19T07:21:03.160Z,99080.57
2017-09-19T07:23:30.648Z,99079.36
2017-09-19T07:25:58.132Z,99083.16
2017-09-19T07:28:25.642Z,99085.45
2017-09-19T07:30:53.154Z,99077.39
2017-09-19T07:33:20.696Z,99080.80
2017-09-19T07:35:48.186Z,99081.30
2017-09-19T07:38:15.683Z,99080.19
2017-09-19T07:40:43.212Z,99083.56
2017-09-19T07:43:10.671Z,99082.78
2017-09-19T07:45:38.261Z,99074.36
2017-09-19T07:48:05.761Z,99084.58
2017-09-19T07:50:33.260Z,99081.90
2017-09-19T07:53:00.769Z,99082.78
2017-09-19T07:55:28.361Z,99084.59
2017-09-19T07:57:55.867Z,99081.84
2017-09-19T08:00:23.330Z,99089.10
2017-09-19T08:02:50.840Z,99090.89
2017-09-19T08:05:18.345Z,99088.46
2017-09-19T08:07:45.867Z,99088.98
2017-09-19T08:10:13.358Z,99080.07
2017-09-19T08:12:40.849Z,99085.79
2017-09-19T08:15:08.337Z,99078.58
2017-09-19T08:17:35.846Z,99086.66
2017-09-19T08:20:03.330Z,99092.03
2017-09-19T08:22:30.813Z,99093.67
2017-09-19T08:24:58.340Z,99083.47
2017-09-19T08:27:25.817Z,99099.52
2017-09-19T08:29:53.317Z,99102.28
2017-09-19T08:32:20.775Z,99098.00
2017-09-19T08:34:48.261Z,99101.66
2017-09-19T08:37:15.742Z,99090.60
2017-09-19T08:39:43.347Z,99092.16
2017-09-19T08:42:10.810Z,99096.05
2017-09-19T08:44:38.295Z,99091.95
2017-09-19T08:47:05.788Z,99100.52
2017-09-19T08:49:33.259Z,99099.61
2017-09-19T08:52:00.777Z,99095.84
2017-09-19T08:54:28.260Z,99108.05
2017-09-19T08:56:55.782Z,99106.02
2017-09-19T08:59:23.251Z,99103.58
2017-09-19T09:01:50.738Z,99098.83
2017-09-19T09:04:18.209Z,99100.13
2017-09-19T09:06:45.709Z,99104.49
2017-09-19T09:09:13.214Z,99105.58
2017-09-19T09:11:40.686Z,99110.03
2017-09-19T09:14:08.200Z,99110.18
2017-09-19T09:16:35.657Z,99088.56
2017-09-19T09:19:03.159Z,99115.20
2017-09-19T09:21:30.639Z,99099.92
2017-09-19T09:23:58.179Z,99106.51
2017-09-19T09:26:25.677Z,99109.39
2017-09-19T09:28:53.651Z,99115.08
2017-09-19T09:31:21.163Z,99100.08
2017-09-19T09:33:49.522Z,99117.59
2017-09-19T09:36:17.011Z,99115.88
2017-09-19T09:38:44.510Z,99112.00
2017-09-19T09:41:12.009Z,99109.95
2017-09-19T09:43:39.480Z,99103.14
2017-09-19T09:46:06.969Z,99112.02
2017-09-19T09:48:34.468Z,99107.62
2017-09-19T09:51:01.987Z,99107.84
2017-09-19T09:53:29.815Z,99103.72
2017-09-19T09:55:57.341Z,99103.99
2017-09-19T09:58:24.841Z,99103.19
2017-09-19T10:00:52.337Z,99100.69
2017-09-19T10:03:20.865Z,99098.40
2017-09-19T10:05:48.372Z,99103.70
2017-09-19T10:08:15.845Z,99097.97
2017-09-19T10:10:43.306Z,99089.23
2017-09-19T10:13:10.842Z,99097.77
2017-09-19T10:15:38.319Z,99096.05
2017-09-19T10:18:05.785Z,99087.09
2017-09-19T10:20:33.265Z,99090.00
2017-09-19T10:23:00.721Z,99088.98
2017-09-19T10:25:29.940Z,99090.84
2017-09-19T10:27:57.545Z,99087.74
2017-09-19T10:30:25.056Z,99084.22
2017-09-19T10:32:52.548Z,99086.17
2017-09-19T10:35:20.067Z,99085.61
2017-09-19T10:37:47.548Z,99081.73
2017-09-19T10:40:15.029Z,99083.91
2017-09-19T10:42:42.549Z,99074.38
2017-09-19T10:45:10.071Z,99079.95
2017-09-19T10:47:37.553Z,99074.84
2017-09-19T10:50:05.030Z,99081.52
2017-09-19T10:52:32.545Z,99079.45
2017-09-19T10:55:00.002Z,99087.55
2017-09-19T10:57:27.482Z,99084.35
2017-09-19T10:59:55.447Z,99078.70
2017-09-19T11:02:22.971Z,99081.94
2017-09-19T11:04:50.514Z,99085.91
2017-09-19T11:07:17.997Z,99084.17
2017-09-19T11:09:45.496Z,99083.59
2017-09-19T11:12:12.948Z,99080.66
2017-09-19T11:14:40.439Z,99082.69
2017-09-19T11:17:07.935Z,99084.77
2017-09-19T11:19:35.400Z,99091.24
2017-09-19T11:22:03.833Z,99098.63
2017-09-19T11:24:31.338Z,99093.17
2017-09-19T11:26:59.024Z,99097.70
2017-09-19T11:29:26.542Z,99100.34
2017-09-19T11:31:54.042Z,99104.86
2017-09-19T11:34:21.641Z,99103.03
2017-09-19T11:36:49.112Z,99101.00
2017-09-19T11:39:16.561Z,99105.73
2017-09-19T11:41:44.080Z,99104.50
2017-09-19T11:44:11.571Z,99102.13
2017-09-19T11:46:39.082Z,99102.34
2017-09-19T11:49:06.552Z,99097.34
2017-09-19T11:51:34.686Z,99089.41
2017-09-19T11:54:02.140Z,99090.08
2017-09-19T11:56:29.665Z,99098.19
2017-09-19T11:58:57.127Z,99063.10
2017-09-19T12:01:24.622Z,99088.98
2017-09-19T12:03:52.099Z,99090.02
2017-09-19T12:06:19.765Z,99084.05
2017-09-19T12:08:47.253Z,99086.03
2017-09-19T12:11:14.833Z,99082.58
2017-09-19T12:13:42.586Z,99081.25
2017-09-19T12:16:10.131Z,99082.28
2017-09-19T12:18:37.640Z,99085.08
2017-09-19T12:21:05.179Z,99084.18
2017-09-19T12:23:32.725Z,99077.58
2017-09-19T12:26:00.251Z,99070.48
2017-09-19T12:28:27.748Z,99084.78
2017-09-19T12:30:55.254Z,99073.48
2017-09-19T12:33:22.720Z,99069.25
2017-09-19T12:35:51.017Z,99079.56
2017-09-19T12:38:18.476Z,99078.42
2017-09-19T12:40:45.952Z,99086.91
2017-09-19T12:43:13.421Z,99081.86
2017-09-19T12:45:40.945Z,99074.02
2017-09-19T12:48:08.413Z,99077.94
2017-09-19T12:50:35.994Z,99078.90
2017-09-19T12:53:03.470Z,99074.41
2017-09-19T12:55:30.991Z,99080.31
2017-09-19T12:57:58.446Z,99077.08
2017-09-19T13:00:25.960Z,99066.20
2017-09-19T13:02:53.429Z,99067.67
2017-09-19T13:05:20.946Z,99067.84
2017-09-19T13:07:48.446Z,99071.48
2017-09-19T13:10:15.901Z,99085.28
2017-09-19T13:12:43.443Z,99083.25
2017-09-19T13:15:10.922Z,99083.62
2017-09-19T13:17:38.477Z,99090.59
2017-09-19T13:20:06.024Z,99087.08
2017-09-19T13:22:33.530Z,99076.16
2017-09-19T13:25:01.072Z,99080.84
2017-09-19T13:27:28.601Z,99074.44
2017-09-19T13:29:56.093Z,99075.34
2017-09-19T13:32:35.326Z,99080.75
2017-09-19T13:35:02.830Z,99076.45
2017-09-19T13:37:30.290Z,99083.09
2017-09-19T13:39:57.838Z,99077.17
2017-09-19T13:42:25.329Z,99074.77
2017-09-19T13:44:52.863Z,99072.31
2017-09-19T13:47:21.205Z,99065.54
2017-09-19T13:49:48.713Z,99069.63
2017-09-19T13:52:16.226Z,99066.45
2017-09-19T13:54:44.008Z,99073.56
2017-09-19T13:57:11.488Z,99080.72
2017-09-19T13:59:38.940Z,99076.18
2017-09-19T14:02:06.457Z,99081.39
2017-09-19T14:04:34.011Z,99080.34
2017-09-19T14:07:01.505Z,99090.66
2017-09-19T14:09:29.077Z,99090.35
2017-09-19T14:11:56.602Z,99092.41
2017-09-19T14:14:24.607Z,99087.64
2017-09-19T14:16:52.121Z,99092.91
2017-09-19T14:19:19.601Z,99088.80
2017-09-19T14:21:47.080Z,99086.87
2017-09-19T14:24:14.597Z,99092.03
2017-09-19T14:26:42.069Z,99097.44
2017-09-19T14:29:09.557Z,99100.28
2017-09-19T14:31:37.041Z,99100.35
2017-09-19T14:34:04.549Z,99098.22
2017-09-19T14:36:32.025Z,99097.89
2017-09-19T14:38:59.505Z,99113.73
2017-09-19T14:41:27.026Z,99104.23
2017-09-19T14:43:54.575Z,99105.58
2017-09-19T14:46:22.042Z,99103.43
2017-09-19T14:48:49.549Z,99105.64
2017-09-19T14:51:19.763Z,99108.48
2017-09-19T14:53:47.304Z,99086.65
2017-09-19T14:56:14.781Z,99099.50
2017-09-19T14:58:42.287Z,99098.47
2017-09-19T15:01:09.769Z,99105.78
2017-09-19T15:03:37.371Z,99116.59
2017-09-19T15:06:12.429Z,99117.97
2017-09-19T15:08:40.099Z,99124.09
2017-09-19T15:11:07.671Z,99146.25
2017-09-19T15:13:35.192Z,99158.62
2017-09-19T15:16:03.040Z,99164.73
2017-09-19T15:18:30.501Z,99161.84
2017-09-19T15:20:59.140Z,99163.83
2017-09-19T15:23:26.621Z,99159.72
2017-09-19T15:25:54.322Z,99172.17
2017-09-19T15:28:21.784Z,99179.92
2017-09-19T15:30:49.265Z,99178.23
2017-09-19T15:33:16.779Z,99182.02
2017-09-19T15:35:44.286Z,99183.93
2017-09-19T15:38:11.900Z,99183.91
2017-09-19T15:40:39.391Z,99183.94
2017-09-19T15:43:06.909Z,99187.10
2017-09-19T15:45:34.381Z,99189.87
2017-09-19T15:48:01.891Z,99184.11
2017-09-19T15:50:29.365Z,99187.04
2017-09-19T15:52:56.880Z,99187.05
2017-09-19T15:55:24.365Z,99187.22
2017-09-19T15:57:51.917Z,99168.08
2017-09-19T16:00:19.369Z,99186.67
2017-09-19T16:02:46.849Z,99191.00
2017-09-19T16:05:14.382Z,99186.20
2017-09-19T16:07:41.857Z,99184.94
2017-09-19T16:10:09.329Z,99187.53
2017-09-19T16:12:36.843Z,99181.45
2017-09-19T16:15:04.330Z,99189.33
2017-09-19T16:17:31.849Z,99188.83
2017-09-19T16:19:59.349Z,99180.08
2017-09-19T16:22:26.826Z,99182.20
2017-09-19T16:24:54.337Z,99186.17
2017-09-19T16:27:21.801Z,99188.62
2017-09-19T16:29:49.314Z,99195.52
2017-09-19T16:32:16.808Z,99190.25
2017-09-19T16:34:44.898Z,99192.82
2017-09-19T16:37:12.355Z,99198.41
2017-09-19T16:39:40.064Z,99192.61
2017-09-19T16:42:07.550Z,99204.92
2017-09-19T16:44:35.022Z,99203.34
2017-09-19T16:47:02.502Z,99211.59
2017-09-19T16:49:30.870Z,99215.58
2017-09-19T16:51:58.357Z,99208.34
2017-09-19T16:54:25.871Z,99212.31
2017-09-19T16:56:54.962Z,99215.37
2017-09-19T16:59:22.490Z,99209.78
2017-09-19T17:01:50.180Z,99209.14
2017-09-19T17:04:17.768Z,99215.19
2017-09-19T17:06:45.258Z,99219.66
2017-09-19T17:09:12.846Z,99215.61
2017-09-19T17:11:40.369Z,99217.77
2017-09-19T17:14:07.906Z,99223.78
2017-09-19T17:16:35.419Z,99225.28
2017-09-19T17:19:02.919Z,99226.61
2017-09-19T17:21:30.465Z,99234.97
2017-09-19T17:23:58.107Z,99236.98
2017-09-19T17:26:26.680Z,99239.73
2017-09-19T17:28:55.445Z,99239.93
2017-09-19T17:31:22.979Z,99244.76
2017-09-19T17:33:50.521Z,99262.06
2017-09-19T17:36:17.976Z,99259.61
2017-09-19T17:38:45.551Z,99260.63
2017-09-19T17:41:13.158Z,99271.78
2017-09-19T17:43:40.654Z,99266.78
2017-09-19T17:46:08.209Z,99268.69
2017-09-19T17:48:35.709Z,99276.37
2017-09-19T17:51:04.315Z,99277.06
2017-09-19T17:53:31.812Z,99274.08
2017-09-19T17:55:59.349Z,99279.91
2017-09-19T17:58:26.853Z,99285.41
2017-09-19T18:00:54.384Z,99282.81
2017-09-19T18:03:21.908Z,99291.29
2017-09-19T18:05:49.457Z,99290.40
2017-09-19T18:08:17.118Z,99304.69
2017-09-19T18:10:44.651Z,99305.92
2017-09-19T18:13:12.166Z,99310.31
2017-09-19T18:15:39.661Z,99306.30
2017-09-19T18:18:07.133Z,99310.93
2017-09-19T18:20:34.649Z,99310.93
2017-09-19T18:23:02.115Z,99304.76
2017-09-19T18:25:29.613Z,99311.55
2017-09-19T18:27:57.097Z,99312.99
2017-09-19T18:30:24.612Z,99317.78
2017-09-19T18:32:52.120Z,99323.47
2017-09-19T18:35:19.583Z,99322.88
2017-09-19T18:37:47.098Z,99324.85
2017-09-19T18:40:14.577Z,99322.80
2017-09-19T18:42:42.059Z,99318.59
2017-09-19T18:45:09.552Z,99326.75
2017-09-19T18:47:37.223Z,99329.37
2017-09-19T18:50:04.719Z,99328.73
2017-09-19T18:52:32.226Z,99332.20
2017-09-19T18:54:59.745Z,99334.33
2017-09-19T18:57:27.253Z,99334.98
2017-09-19T18:59:54.755Z,99340.61
2017-09-19T19:02:22.222Z,99346.31
2017-09-19T19:04:49.729Z,99344.08
2017-09-19T19:07:17.201Z,99348.13
2017-09-19T19:09:44.714Z,99353.73
2017-09-19T19:12:12.214Z,99350.28
2017-09-19T19:14:39.847Z,99352.84
2017-09-19T19:17:07.341Z,99350.72
2017-09-19T19:19:34.833Z,99355.00
2017-09-19T19:22:02.429Z,99355.78
2017-09-19T19:24:29.916Z,99349.73
2017-09-19T19:26:57.399Z,99356.30
2017-09-19T19:29:25.756Z,99354.72
2017-09-19T19:31:53.304Z,99360.70
2017-09-19T19:34:20.828Z,99360.87
2017-09-19T19:36:48.286Z,99363.76
2017-09-19T19:39:15.796Z,99362.98
2017-09-19T19:41:43.278Z,99369.07
2017-09-19T19:44:10.862Z,99372.82
2017-09-19T19:46:38.335Z,99374.16
2017-09-19T19:49:05.868Z,99375.52
2017-09-19T19:51:33.323Z,99382.02
2017-09-19T19:54:00.814Z,99384.53
2017-09-19T19:56:28.321Z,99383.72
2017-09-19T19:58:55.788Z,99385.70
2017-09-19T20:01:23.376Z,99382.00
2017-09-19T20:03:50.995Z,99387.30
2017-09-19T20:06:18.522Z,99382.00
2017-09-19T20:08:45.989Z,99392.86
2017-09-19T20:11:13.499Z,99392.73
2017-09-19T20:13:41.012Z,99395.09
2017-09-19T20:16:08.476Z,99391.11
2017-09-19T20:18:35.953Z,99392.84
2017-09-19T20:21:03.416Z,99386.22
2017-09-19T20:23:30.908Z,99395.41
2017-09-19T20:25:58.381Z,99391.59
2017-09-19T20:28:25.870Z,99391.87
2017-09-19T20:30:53.354Z,99401.41
2017-09-19T20:33:20.862Z,99402.89
2017-09-19T20:35:48.309Z,99403.53
2017-09-19T20:38:15.795Z,99408.60
2017-09-19T20:40:43.263Z,99406.23
2017-09-19T20:43:10.757Z,99406.64
2017-09-19T20:45:38.249Z,99405.56
2017-09-19T20:48:05.717Z,99407.44
2017-09-19T20:50:33.198Z,99408.61
2017-09-19T20:53:00.710Z,99413.40
2017-09-19T20:55:28.377Z,99416.58
2017-09-19T20:57:55.844Z,99409.05
2017-09-19T21:00:23.309Z,99418.33
2017-09-19T21:02:50.245Z,99413.17
2017-09-19T21:05:23.333Z,99418.08
2017-09-19T21:07:56.407Z,99422.58
2017-09-19T21:10:29.388Z,99420.45
2017-09-19T21:13:02.549Z,99420.73
2017-09-19T21:15:35.653Z,99428.30
2017-09-19T21:18:09.312Z,99422.84
2017-09-19T21:20:36.245Z,99423.48
2017-09-19T21:23:03.743Z,99426.30
2017-09-19T21:25:31.204Z,99426.57
2017-09-19T21:27:58.714Z,99428.97
2017-09-19T21:30:26.192Z,99430.95
2017-09-19T21:32:53.681Z,99429.87
2017-09-19T21:35:21.191Z,99423.39
2017-09-19T21:37:48.694Z,99430.02
2017-09-19T21:40:16.209Z,99429.06
2017-09-19T21:42:43.678Z,99425.49
2017-09-19T21:45:11.155Z,99425.62
2017-09-19T21:47:38.611Z,99427.89
2017-09-19T21:50:06.108Z,99428.56
2017-09-19T21:52:33.610Z,99425.65
2017-09-19T21:55:01.065Z,99426.45
2017-09-19T21:57:28.634Z,99426.98
2017-09-19T21:59:56.113Z,99430.69
2017-09-19T22:02:23.619Z,99425.66
2017-09-19T22:04:51.078Z,99420.59
2017-09-19T22:07:18.569Z,99426.97
2017-09-19T22:09:46.018Z,99423.53
2017-09-19T22:12:13.530Z,99425.50
2017-09-19T22:14:40.987Z,99421.02
2017-09-19T22:17:08.460Z,99422.73
2017-09-19T22:19:35.947Z,99419.16
2017-09-19T22:22:03.433Z,99426.16
2017-09-19T22:24:30.916Z,99428.16
2017-09-19T22:26:58.381Z,99425.12
2017-09-19T22:29:25.988Z,99422.73
2017-09-19T22:31:53.460Z,99423.38
2017-09-19T22:34:20.929Z,99429.35
2017-09-19T22:36:48.414Z,99424.72
2017-09-19T22:39:15.901Z,99426.31
2017-09-19T22:41:43.397Z,99422.59
2017-09-19T22:44:10.841Z,99422.59
2017-09-19T22:46:38.327Z,99423.50
2017-09-19T22:49:05.837Z,99415.25
2017-09-19T22:51:33.314Z,99420.41
2017-09-19T22:54:00.816Z,99418.95
2017-09-19T22:56:28.300Z,99420.45
2017-09-19T22:58:55.781Z,99419.38
2017-09-19T23:01:23.254Z,99417.00
2017-09-19T23:03:50.754Z,99419.50
2017-09-19T23:06:18.217Z,99416.31
2017-09-19T23:08:45.830Z,99419.63
2017-09-19T23:11:13.298Z,99408.48
2017-09-19T23:13:40.781Z,99407.95
2017-09-19T23:16:08.276Z,99408.78
2017-09-19T23:18:35.729Z,99414.60
2017-09-19T23:21:03.201Z,99412.63
2017-09-19T23:23:30.678Z,99417.63
2017-09-19T23:25:58.186Z,99422.41
2017-09-19T23:28:25.658Z,99419.09
2017-09-19T23:30:53.134Z,99422.66
2017-09-19T23:33:20.608Z,99427.20
2017-09-19T23:35:48.105Z,99419.30
2017-09-19T23:38:15.564Z,99423.48
2017-09-19T23:40:43.238Z,99426.28
2017-09-19T23:43:10.709Z,99428.87
2017-09-19T23:45:38.161Z,99427.13
2017-09-19T23:48:05.641Z,99428.23
2017-09-19T23:50:33.110Z,99426.36
2017-09-19T23:53:00.637Z,99421.84
2017-09-19T23:55:28.146Z,99420.35
2017-09-19T23:57:55.679Z,99428.25
